Sherwood, Maryland
Current Conditions -  °F | °C
As of 6:55 PM on Wednesday 28 Jan 2015 (Local Time) from KESN Reporting Station
Clear Clear  
Wind Chill: 28°   Ceiling: Unl
Heat Index: 34°   Visibility: 10mi
Dew Point: 14°   Wind: 7mph
Humidity: 44%   Direction: 330°NNW
Pressure: 30.31"   Gusts: NA
Location:  38.76°N, 76.32°W
Report Text: KESN 282355Z 33006KT 10SM SKC 01/M10 A3031
Loading
Personal Weather Stations






























Interactive Weather Map New forecast layout! Learn more

10-Day Weather Forecast

Advertisements
Track Severe Weather on mobile